Time;durP1;ratioP1;P1;durP2;ratioP2;P2;SDS_P1;SDS_P2;PMS_P1;PMS_P2;Temp;Humidity;BMP_temperature;BMP_pressure;BME280_temperature;BME280_humidity;BME280_pressure;Samples;Min_cycle;Max_cycle;Signal;HPM_P1;HPM_P2
2023/10/06 00:02:11;;;;;;;;;;;;;;;-144.99;100.00;52362.50;5023383;28;20100;-69
2023/10/06 00:04:41;;;;;;;;;;;;;;;-144.99;100.00;52354.34;5028740;28;19947;-67
2023/10/06 00:07:09;;;;;;;;;;;;;;;-144.99;100.00;52325.81;5027151;28;19969;-68
2023/10/06 00:09:36;;;;;;;;;;;;;;;-144.99;100.00;52360.44;5021944;28;20024;-67
2023/10/06 00:12:03;;;;;;;;;;;;;;;-144.99;100.00;52333.94;5016814;28;19929;-63
2023/10/06 00:14:39;;;;;;;;;;;;;;;-144.99;100.00;52382.88;5027379;28;20033;-63
2023/10/06 00:17:09;;;;;;;;;;;;;;;-144.99;100.00;52354.34;5024415;28;19946;-63
2023/10/06 00:19:37;;;;;;;;;;;;;;;-144.99;100.00;52329.88;5023593;28;20424;-62
2023/10/06 00:22:12;;;;;;;;;;;;;;;-144.99;100.00;52354.34;5027268;28;19946;-64
2023/10/06 00:24:42;;;;;;;;;;;;;;;-144.99;100.00;52344.16;5028968;28;19969;-64
2023/10/06 00:27:10;;;;;;;;;;;;;;;-144.99;100.00;52362.50;5017585;28;20036;-64
2023/10/06 00:29:37;;;;;;;;;;;;;;;-144.99;100.00;52378.78;5021813;28;19961;-64
2023/10/06 00:32:21;;;;;;;;;;;;;;;-144.99;100.00;52378.78;5026034;28;20028;-64
2023/10/06 00:34:47;;;;;;;;;;;;;;;-144.99;100.00;52342.09;5029102;28;19955;-63
2023/10/06 00:37:15;;;;;;;;;;;;;;;-144.99;100.00;52378.78;5027438;28;19976;-64
2023/10/06 00:39:43;;;;;;;;;;;;;;;-144.99;100.00;52378.78;5021550;28;19956;-63
2023/10/06 00:42:14;;;;;;;;;;;;;;;-144.99;100.00;52378.78;5018636;28;19937;-62
2023/10/06 00:44:45;;;;;;;;;;;;;;;-144.99;100.00;52399.19;5027604;28;19946;-63
2023/10/06 00:47:13;;;;;;;;;;;;;;;-144.99;100.00;52395.09;5013252;28;19941;-64
2023/10/06 00:49:40;;;;;;;;;;;;;;;-144.99;100.00;52342.09;5027505;28;20088;-64
2023/10/06 00:52:08;;;;;;;;;;;;;;;-144.99;100.00;52362.50;5026412;28;20386;-64
2023/10/06 00:54:34;;;;;;;;;;;;;;;-144.99;100.00;52411.41;5028122;28;19978;-64
2023/10/06 00:57:08;;;;;;;;;;;;;;;-144.99;100.00;52354.34;5028755;28;19994;-63
2023/10/06 00:59:35;;;;;;;;;;;;;;;-144.99;100.00;52395.09;5022828;28;20101;-68
2023/10/06 01:02:01;;;;;;;;;;;;;;;-144.99;100.00;52391.03;5024131;28;19950;-64
2023/10/06 01:04:34;;;;;;;;;;;;;;;-144.99;100.00;52395.09;5026087;28;20045;-61
2023/10/06 01:07:01;;;;;;;;;;;;;;;-144.99;100.00;52386.94;5027112;28;20276;-60
2023/10/06 01:09:32;;;;;;;;;;;;;;;-144.99;100.00;52350.25;5026783;28;19965;-60
2023/10/06 01:11:59;;;;;;;;;;;;;;;-144.99;100.00;52378.78;5008040;28;19946;-60
2023/10/06 01:14:27;;;;;;;;;;;;;;;-144.99;100.00;52360.44;5027223;28;19956;-61
2023/10/06 01:17:04;;;;;;;;;;;;;;;-144.99;100.00;52366.56;5027090;28;19972;-60
2023/10/06 01:19:33;;;;;;;;;;;;;;;-144.99;100.00;52325.81;5027164;28;20150;-61
2023/10/06 01:22:07;;;;;;;;;;;;;;;-144.99;100.00;52386.94;5025161;28;19950;-61
2023/10/06 01:24:35;;;;;;;;;;;;;;;-144.99;100.00;52372.69;5027491;28;19943;-60
2023/10/06 01:27:05;;;;;;;;;;;;;;;-144.99;100.00;52358.41;5024084;28;20476;-63
2023/10/06 01:29:32;;;;;;;;;;;;;;;-144.99;100.00;52372.69;5026718;28;19963;-65
2023/10/06 01:32:03;;;;;;;;;;;;;;;-144.99;100.00;52395.09;5025486;28;20501;-65
2023/10/06 01:34:34;;;;;;;;;;;;;;;-144.99;100.00;52358.41;5026359;28;19949;-65
2023/10/06 01:37:03;;;;;;;;;;;;;;;-144.99;100.00;52358.41;5026252;28;20038;-65
2023/10/06 01:39:32;;;;;;;;;;;;;;;-144.99;100.00;52338.03;5022832;28;19958;-65
2023/10/06 01:42:04;;;;;;;;;;;;;;;-144.99;100.00;52350.25;5025853;28;20247;-63
2023/10/06 01:44:31;;;;;;;;;;;;;;;-144.99;100.00;52346.19;5026227;28;20068;-63
2023/10/06 01:46:57;;;;;;;;;;;;;;;-144.99;100.00;52354.34;5027799;28;19968;-68
2023/10/06 01:49:24;;;;;;;;;;;;;;;-144.99;100.00;52370.63;5028285;28;19964;-70
2023/10/06 01:51:51;;;;;;;;;;;;;;;-144.99;100.00;52407.31;5028298;28;19993;-66
2023/10/06 01:54:19;;;;;;;;;;;;;;;-144.99;100.00;52370.63;5025257;28;20436;-66
2023/10/06 01:56:46;;;;;;;;;;;;;;;-144.99;100.00;52370.63;4674298;28;10000130;-66
2023/10/06 01:59:14;;;;;;;;;;;;;;;-144.99;100.00;52340.06;5026710;28;19937;-63
2023/10/06 02:01:41;;;;;;;;;;;;;;;-144.99;100.00;52366.56;5026768;28;19941;-65
2023/10/06 02:04:11;;;;;;;;;;;;;;;-144.99;100.00;52366.56;5023723;28;20002;-65
2023/10/06 02:06:41;;;;;;;;;;;;;;;-144.99;100.00;52329.88;5024570;28;20265;-64
2023/10/06 02:09:15;;;;;;;;;;;;;;;-144.99;100.00;52384.91;5019736;28;19959;-64
2023/10/06 02:11:41;;;;;;;;;;;;;;;-144.99;100.00;52370.63;5030180;28;19962;-65
2023/10/06 02:14:10;;;;;;;;;;;;;;;-144.99;100.00;52388.97;5026945;28;20396;-64
2023/10/06 02:16:37;;;;;;;;;;;;;;;-144.99;100.00;52362.50;5024123;28;19979;-65
2023/10/06 02:19:08;;;;;;;;;;;;;;;-144.99;100.00;52358.41;5029325;28;19977;-63
2023/10/06 02:21:35;;;;;;;;;;;;;;;-144.99;100.00;52358.41;5024348;28;19952;-63
2023/10/06 02:24:03;;;;;;;;;;;;;;;-144.99;100.00;52362.50;5027278;28;19945;-62
2023/10/06 02:26:35;;;;;;;;;;;;;;;-144.99;100.00;52386.94;5024219;28;19942;-62
2023/10/06 02:29:02;;;;;;;;;;;;;;;-144.99;100.00;52350.25;5028809;28;19967;-63
2023/10/06 02:31:28;;;;;;;;;;;;;;;-144.99;100.00;52370.63;5021426;28;19937;-64
2023/10/06 02:33:56;;;;;;;;;;;;;;;-144.99;100.00;52366.56;5028974;28;20474;-64
2023/10/06 02:36:23;;;;;;;;;;;;;;;-144.99;100.00;52366.56;5028221;28;20022;-63
2023/10/06 02:38:49;;;;;;;;;;;;;;;-144.99;100.00;52395.09;5029205;28;19982;-64
2023/10/06 02:41:18;;;;;;;;;;;;;;;-144.99;100.00;52352.28;5029231;28;20046;-65
2023/10/06 02:43:48;;;;;;;;;;;;;;;-144.99;100.00;52366.56;5028714;28;19941;-62
2023/10/06 02:46:15;;;;;;;;;;;;;;;-144.99;100.00;52344.16;5028222;28;20021;-63
2023/10/06 02:48:48;;;;;;;;;;;;;;;-144.99;100.00;52362.50;5020765;28;19936;-61
2023/10/06 02:51:21;;;;;;;;;;;;;;;-144.99;100.00;52407.31;5027131;28;20149;-65
2023/10/06 02:53:50;;;;;;;;;;;;;;;-144.99;100.00;52356.38;5020870;28;20113;-64
2023/10/06 02:56:21;;;;;;;;;;;;;;;-144.99;100.00;52382.88;5033747;22;19957;-62
2023/10/06 02:58:50;;;;;;;;;;;;;;;-144.99;100.00;52346.19;5011781;28;19990;-64
2023/10/06 03:01:17;;;;;;;;;;;;;;;-144.99;100.00;52354.34;5019195;28;19957;-64
2023/10/06 03:03:43;;;;;;;;;;;;;;;-144.99;100.00;52393.06;5015592;28;19981;-65
2023/10/06 03:06:10;;;;;;;;;;;;;;;-144.99;100.00;52370.63;5006602;28;19996;-65
2023/10/06 03:08:41;;;;;;;;;;;;;;;-144.99;100.00;52374.72;5008500;28;19994;-65
2023/10/06 03:11:10;;;;;;;;;;;;;;;-144.99;100.00;52378.78;5006780;28;19960;-65
2023/10/06 03:13:42;;;;;;;;;;;;;;;-144.99;100.00;52374.72;5004076;28;19989;-65
2023/10/06 03:16:11;;;;;;;;;;;;;;;-144.99;100.00;52362.50;5014428;28;19944;-65
2023/10/06 03:18:38;;;;;;;;;;;;;;;-144.99;100.00;52350.25;5011776;28;20023;-71
2023/10/06 03:21:13;;;;;;;;;;;;;;;-144.99;100.00;52417.53;5034644;28;19954;-73
2023/10/06 03:23:44;;;;;;;;;;;;;;;-144.99;100.00;52378.78;5022877;28;19941;-72
2023/10/06 03:26:14;;;;;;;;;;;;;;;-144.99;100.00;52366.56;5011134;28;19929;-72
2023/10/06 03:28:43;;;;;;;;;;;;;;;-144.99;100.00;52407.31;5003855;28;19948;-71
2023/10/06 03:31:22;;;;;;;;;;;;;;;-144.99;100.00;52403.25;5012308;28;19963;-71
2023/10/06 03:33:49;;;;;;;;;;;;;;;-144.99;100.00;52358.41;5019213;28;20402;-71
2023/10/06 03:36:16;;;;;;;;;;;;;;;-144.99;100.00;52386.94;5001861;28;19947;-74
2023/10/06 03:38:54;;;;;;;;;;;;;;;-144.99;100.00;52366.56;5008039;28;19982;-73
2023/10/06 03:41:24;;;;;;;;;;;;;;;-144.99;100.00;52382.88;5013913;28;19952;-72
2023/10/06 03:43:53;;;;;;;;;;;;;;;-144.99;100.00;52391.03;5010817;28;20424;-73
2023/10/06 03:46:20;;;;;;;;;;;;;;;-144.99;100.00;52397.13;5007482;28;19939;-73
2023/10/06 03:48:48;;;;;;;;;;;;;;;-144.99;100.00;52374.72;5012044;28;20043;-70
2023/10/06 03:51:15;;;;;;;;;;;;;;;-144.99;100.00;52407.31;5015512;28;19972;-71
2023/10/06 03:53:42;;;;;;;;;;;;;;;-144.99;100.00;52403.25;5013006;28;20445;-70
2023/10/06 03:56:12;;;;;;;;;;;;;;;-144.99;100.00;52415.47;5010276;28;19978;-70
2023/10/06 03:58:39;;;;;;;;;;;;;;;-144.99;100.00;52370.63;5005232;28;20033;-66
2023/10/06 04:01:09;;;;;;;;;;;;;;;-144.99;100.00;52362.50;5023272;28;19955;-69
2023/10/06 04:03:36;;;;;;;;;;;;;;;-144.99;100.00;52399.19;5022267;28;19943;-66
2023/10/06 04:06:04;;;;;;;;;;;;;;;-144.99;100.00;52382.88;5016108;28;20463;-64
2023/10/06 04:08:30;;;;;;;;;;;;;;;-144.99;100.00;52358.41;5010588;28;20386;-62
2023/10/06 04:10:58;;;;;;;;;;;;;;;-144.99;100.00;52382.88;5020121;28;19969;-61
2023/10/06 04:13:26;;;;;;;;;;;;;;;-144.99;100.00;52362.50;5013490;28;19941;-63
2023/10/06 04:15:53;;;;;;;;;;;;;;;-144.99;100.00;52346.19;5011661;28;20044;-61
2023/10/06 04:18:22;;;;;;;;;;;;;;;-144.99;100.00;52382.88;4998856;28;19943;-65
2023/10/06 04:20:49;;;;;;;;;;;;;;;-144.99;100.00;52380.84;5011836;28;20015;-63
2023/10/06 04:23:16;;;;;;;;;;;;;;;-144.99;100.00;52399.19;5010955;28;20459;-64
2023/10/06 04:25:44;;;;;;;;;;;;;;;-144.99;100.00;52366.56;5012441;28;19992;-62
2023/10/06 04:28:13;;;;;;;;;;;;;;;-144.99;100.00;52386.94;5007942;28;20365;-63
2023/10/06 04:30:43;;;;;;;;;;;;;;;-144.99;100.00;52382.88;5015627;28;19959;-64
2023/10/06 04:33:10;;;;;;;;;;;;;;;-144.99;100.00;52342.09;5019070;28;20368;-62
2023/10/06 04:35:39;;;;;;;;;;;;;;;-144.99;100.00;52362.50;5016759;28;19947;-62
2023/10/06 04:38:06;;;;;;;;;;;;;;;-144.99;100.00;52399.19;5017586;28;20353;-62
2023/10/06 04:40:32;;;;;;;;;;;;;;;-144.99;100.00;52382.88;5011333;28;19986;-65
2023/10/06 04:42:59;;;;;;;;;;;;;;;-144.99;100.00;52378.78;5016170;28;19956;-66
2023/10/06 04:45:26;;;;;;;;;;;;;;;-144.99;100.00;52360.44;5013053;28;19951;-66
2023/10/06 04:47:55;;;;;;;;;;;;;;;-144.99;100.00;52386.94;5017923;28;20414;-66
2023/10/06 04:50:22;;;;;;;;;;;;;;;-144.99;100.00;52393.06;5015208;28;19975;-66
2023/10/06 04:52:48;;;;;;;;;;;;;;;-144.99;100.00;52370.63;5016870;28;20149;-66
2023/10/06 04:55:16;;;;;;;;;;;;;;;-144.99;100.00;52395.09;5021028;28;19947;-66
2023/10/06 04:57:43;;;;;;;;;;;;;;;-144.99;100.00;52415.47;5002805;28;19990;-66
2023/10/06 05:00:15;;;;;;;;;;;;;;;-144.99;100.00;52382.88;5002178;28;19994;-66
2023/10/06 05:02:43;;;;;;;;;;;;;;;-144.99;100.00;52419.56;5015028;28;19994;-66
2023/10/06 05:05:12;;;;;;;;;;;;;;;-144.99;100.00;52386.94;5013423;28;19936;-67
2023/10/06 05:07:39;;;;;;;;;;;;;;;-144.99;100.00;52374.72;5016641;28;19954;-66
2023/10/06 05:10:08;;;;;;;;;;;;;;;-144.99;100.00;52403.25;5014392;28;19965;-66
2023/10/06 05:12:37;;;;;;;;;;;;;;;-144.99;100.00;52384.91;5000905;28;20044;-65
2023/10/06 05:15:04;;;;;;;;;;;;;;;-144.99;100.00;52382.88;5013734;28;20473;-66
2023/10/06 05:17:31;;;;;;;;;;;;;;;-144.99;100.00;52407.31;5010746;28;20384;-66
2023/10/06 05:19:58;;;;;;;;;;;;;;;-144.99;100.00;52354.34;5003882;28;19972;-66
2023/10/06 05:22:26;;;;;;;;;;;;;;;-144.99;100.00;52391.03;5015138;28;19942;-66
2023/10/06 05:24:53;;;;;;;;;;;;;;;-144.99;100.00;52374.72;5015241;28;19944;-66
2023/10/06 05:27:21;;;;;;;;;;;;;;;-144.99;100.00;52374.72;5005656;28;19944;-66
2023/10/06 05:29:47;;;;;;;;;;;;;;;-144.99;100.00;52431.78;5008860;28;20046;-66
2023/10/06 05:32:14;;;;;;;;;;;;;;;-144.99;100.00;52370.63;5011156;28;20022;-66
2023/10/06 05:34:41;;;;;;;;;;;;;;;-144.99;100.00;52423.63;5012352;28;19948;-66
2023/10/06 05:37:08;;;;;;;;;;;;;;;-144.99;100.00;52411.41;5013951;28;20386;-66
2023/10/06 05:39:40;;;;;;;;;;;;;;;-144.99;100.00;52395.09;5011756;28;19961;-66
2023/10/06 05:42:08;;;;;;;;;;;;;;;-144.99;100.00;52374.72;5010905;28;20319;-68
2023/10/06 05:44:36;;;;;;;;;;;;;;;-144.99;100.00;52382.88;5018435;28;20039;-67
2023/10/06 05:47:02;;;;;;;;;;;;;;;-144.99;100.00;52431.78;5010191;28;19946;-68
2023/10/06 05:49:32;;;;;;;;;;;;;;;-144.99;100.00;52378.78;5014250;28;20017;-67
2023/10/06 05:51:59;;;;;;;;;;;;;;;-144.99;100.00;52391.03;5011737;28;20353;-66
2023/10/06 05:54:26;;;;;;;;;;;;;;;-144.99;100.00;52380.84;4993267;28;20276;-66
2023/10/06 05:56:55;;;;;;;;;;;;;;;-144.99;100.00;52386.94;4999402;28;20030;-69
2023/10/06 05:59:21;;;;;;;;;;;;;;;-144.99;100.00;52431.78;5009737;28;20011;-66
2023/10/06 06:01:56;;;;;;;;;;;;;;;-144.99;100.00;52354.34;5012494;28;19986;-66
2023/10/06 06:04:27;;;;;;;;;;;;;;;-144.99;100.00;52407.31;5017918;28;19942;-66
2023/10/06 06:06:56;;;;;;;;;;;;;;;-144.99;100.00;52391.03;5007436;28;19942;-65
2023/10/06 06:09:22;;;;;;;;;;;;;;;-144.99;100.00;52378.78;5004546;28;20224;-69
2023/10/06 06:11:49;;;;;;;;;;;;;;;-144.99;100.00;52391.03;5009524;28;20444;-71
2023/10/06 06:14:20;;;;;;;;;;;;;;;-144.99;100.00;52403.25;5005429;28;20009;-70
2023/10/06 06:16:46;;;;;;;;;;;;;;;-144.99;100.00;52395.09;5007842;28;20338;-70
2023/10/06 06:19:13;;;;;;;;;;;;;;;-144.99;100.00;52415.47;5013409;28;20408;-69
2023/10/06 06:21:39;;;;;;;;;;;;;;;-144.99;100.00;52386.94;5017335;28;19972;-68
2023/10/06 06:24:07;;;;;;;;;;;;;;;-144.99;100.00;52376.75;5006832;28;19937;-66
2023/10/06 06:26:33;;;;;;;;;;;;;;;-144.99;100.00;52391.03;5006878;28;19943;-66
2023/10/06 06:29:02;;;;;;;;;;;;;;;-144.99;100.00;52376.75;5015293;28;20008;-66
2023/10/06 06:31:32;;;;;;;;;;;;;;;-144.99;100.00;52399.19;5011764;28;19954;-66
2023/10/06 06:33:59;;;;;;;;;;;;;;;-144.99;100.00;52354.34;5015770;28;19945;-67
2023/10/06 06:36:26;;;;;;;;;;;;;;;-144.99;100.00;52403.25;5009918;28;19992;-66
2023/10/06 06:38:53;;;;;;;;;;;;;;;-144.99;100.00;52378.78;5010042;28;19945;-66
2023/10/06 06:41:21;;;;;;;;;;;;;;;-144.99;100.00;52382.88;5014237;28;19962;-67
2023/10/06 06:43:48;;;;;;;;;;;;;;;-144.99;100.00;52382.88;5021614;28;20087;-66
2023/10/06 06:46:16;;;;;;;;;;;;;;;-144.99;100.00;52417.53;5012584;28;20014;-66
2023/10/06 06:48:46;;;;;;;;;;;;;;;-144.99;100.00;52382.88;5005863;28;20237;-67
2023/10/06 06:51:13;;;;;;;;;;;;;;;-144.99;100.00;52458.28;5010007;28;20420;-67
2023/10/06 06:53:40;;;;;;;;;;;;;;;-144.99;100.00;52419.56;5004545;28;19943;-67
2023/10/06 06:56:09;;;;;;;;;;;;;;;-144.99;100.00;52407.31;5002329;28;20033;-67
2023/10/06 06:58:37;;;;;;;;;;;;;;;-144.99;100.00;52370.63;5012197;28;20023;-67
2023/10/06 07:01:05;;;;;;;;;;;;;;;-144.99;100.00;52366.56;5014875;28;20046;-66
2023/10/06 07:03:32;;;;;;;;;;;;;;;-144.99;100.00;52395.09;5007864;28;19948;-66
2023/10/06 07:06:00;;;;;;;;;;;;;;;-144.99;100.00;52399.19;5012902;28;20004;-65
2023/10/06 07:08:27;;;;;;;;;;;;;;;-144.99;100.00;52395.09;5008497;28;19991;-66
2023/10/06 07:10:54;;;;;;;;;;;;;;;-144.99;100.00;52411.41;5009053;28;20368;-65
2023/10/06 07:13:22;;;;;;;;;;;;;;;-144.99;100.00;52399.19;5003137;28;19938;-65
2023/10/06 07:15:49;;;;;;;;;;;;;;;-144.99;100.00;52391.03;5010308;28;19943;-66
2023/10/06 07:18:16;;;;;;;;;;;;;;;-144.99;100.00;52415.47;5003094;28;19957;-65
2023/10/06 07:20:44;;;;;;;;;;;;;;;-144.99;100.00;52362.50;5007231;28;19960;-65
2023/10/06 07:23:12;;;;;;;;;;;;;;;-144.99;100.00;52376.75;5008346;28;20053;-65
2023/10/06 07:25:38;;;;;;;;;;;;;;;-144.99;100.00;52388.97;5021402;28;20022;-66
2023/10/06 07:28:06;;;;;;;;;;;;;;;-144.99;100.00;52356.38;5015157;28;19994;-66
2023/10/06 07:30:34;;;;;;;;;;;;;;;-144.99;100.00;52423.63;5009445;28;19954;-66
2023/10/06 07:33:02;;;;;;;;;;;;;;;-144.99;100.00;52391.03;5020148;28;20043;-66
2023/10/06 07:35:36;;;;;;;;;;;;;;;-144.99;100.00;52403.25;5018377;28;19943;-65
2023/10/06 07:38:03;;;;;;;;;;;;;;;-144.99;100.00;52417.53;5018096;28;19954;-66
2023/10/06 07:40:31;;;;;;;;;;;;;;;-144.99;100.00;52403.25;5022276;28;19997;-66
2023/10/06 07:42:58;;;;;;;;;;;;;;;-144.99;100.00;52401.22;5018553;28;19947;-65
2023/10/06 07:45:26;;;;;;;;;;;;;;;-144.99;100.00;52395.09;5008054;28;19938;-66
2023/10/06 07:47:53;;;;;;;;;;;;;;;-144.99;100.00;52431.78;5005372;28;19943;-64
2023/10/06 07:50:20;;;;;;;;;;;;;;;-144.99;100.00;52378.78;5014107;28;19963;-65
2023/10/06 07:52:47;;;;;;;;;;;;;;;-144.99;100.00;52393.06;5011003;28;19973;-65
2023/10/06 07:55:15;;;;;;;;;;;;;;;-144.99;100.00;52417.53;5012148;28;20315;-66
2023/10/06 07:57:45;;;;;;;;;;;;;;;-144.99;100.00;52378.78;5011775;28;19947;-66
2023/10/06 08:00:18;;;;;;;;;;;;;;;-144.99;100.00;52346.19;5004147;28;19954;-65
2023/10/06 08:02:44;;;;;;;;;;;;;;;-144.99;100.00;52378.78;5006987;28;19939;-65
2023/10/06 08:05:12;;;;;;;;;;;;;;;-144.99;100.00;52407.31;5015877;28;19976;-65
2023/10/06 08:07:39;;;;;;;;;;;;;;;-144.99;100.00;52419.56;5014169;28;20646;-66
2023/10/06 08:10:07;;;;;;;;;;;;;;;-144.99;100.00;52382.88;5012523;28;20332;-65
2023/10/06 08:12:34;;;;;;;;;;;;;;;-144.99;100.00;52386.94;5009598;28;19964;-66
2023/10/06 08:15:06;;;;;;;;;;;;;;;-144.99;100.00;52386.94;5015330;28;20008;-65
2023/10/06 08:17:32;;;;;;;;;;;;;;;-144.99;100.00;52399.19;5016809;28;19997;-66
2023/10/06 08:19:59;;;;;;;;;;;;;;;-144.99;100.00;52374.72;5013923;28;19967;-66
2023/10/06 08:22:29;;;;;;;;;;;;;;;-144.99;100.00;52415.47;5019363;28;19939;-66
2023/10/06 08:24:56;;;;;;;;;;;;;;;-144.99;100.00;52419.56;5019048;28;19997;-65
2023/10/06 08:27:23;;;;;;;;;;;;;;;-144.99;100.00;52384.91;5011433;28;19995;-66
2023/10/06 08:29:51;;;;;;;;;;;;;;;-144.99;100.00;52399.19;5009938;28;19969;-67
2023/10/06 08:32:19;;;;;;;;;;;;;;;-144.99;100.00;52391.03;5004545;28;19966;-67
2023/10/06 08:34:46;;;;;;;;;;;;;;;-144.99;100.00;52403.25;5014461;28;19961;-68
2023/10/06 08:37:12;;;;;;;;;;;;;;;-144.99;100.00;52382.88;5012019;28;19941;-71
2023/10/06 08:39:44;;;;;;;;;;;;;;;-144.99;100.00;52391.03;5010691;28;20351;-71
2023/10/06 08:42:11;;;;;;;;;;;;;;;-144.99;100.00;52386.94;4997290;28;20003;-72
2023/10/06 08:44:39;;;;;;;;;;;;;;;-144.99;100.00;52386.94;5014682;28;19944;-70
2023/10/06 08:47:06;;;;;;;;;;;;;;;-144.99;100.00;52358.41;5022030;28;19986;-71
2023/10/06 08:49:34;;;;;;;;;;;;;;;-144.99;100.00;52391.03;5024649;28;19985;-70
2023/10/06 08:52:01;;;;;;;;;;;;;;;-144.99;100.00;52362.50;5022829;28;20325;-68
2023/10/06 08:54:29;;;;;;;;;;;;;;;-144.99;100.00;52403.25;5006392;28;20131;-68
2023/10/06 08:56:56;;;;;;;;;;;;;;;-144.99;100.00;52395.09;4998988;28;19949;-68
2023/10/06 08:59:22;;;;;;;;;;;;;;;-144.99;100.00;52391.03;5008182;28;19964;-67
2023/10/06 09:01:49;;;;;;;;;;;;;;;-144.99;100.00;52407.31;5014306;28;20027;-68
2023/10/06 09:07:12;;;;;;;;;;;;;;;-144.99;100.00;52362.50;5030491;28;20102;-69
2023/10/06 09:09:38;;;;;;;;;;;;;;;-144.99;100.00;52333.94;5027627;28;19963;-68
2023/10/06 09:12:05;;;;;;;;;;;;;;;-144.99;100.00;52444.03;5037845;28;19972;-67
2023/10/06 09:14:32;;;;;;;;;;;;;;;-144.99;100.00;52374.72;5042431;28;19982;-67
2023/10/06 09:17:01;;;;;;;;;;;;;;;-144.99;100.00;52401.22;5048108;28;19948;-68
2023/10/06 09:19:29;;;;;;;;;;;;;;;-144.99;100.00;52411.41;5038690;28;20596;-68
2023/10/06 09:22:02;;;;;;;;;;;;;;;-144.99;100.00;52391.03;5037978;28;19975;-68
2023/10/06 09:24:30;;;;;;;;;;;;;;;-144.99;100.00;52378.78;5043062;28;20436;-67
2023/10/06 09:26:58;;;;;;;;;;;;;;;-144.99;100.00;52415.47;5047319;28;19999;-69
2023/10/06 09:29:31;;;;;;;;;;;;;;;-144.99;100.00;52395.09;5047195;28;20368;-67
2023/10/06 09:31:57;;;;;;;;;;;;;;;-144.99;100.00;52399.19;5039271;28;19972;-66
2023/10/06 09:34:24;;;;;;;;;;;;;;;-144.99;100.00;52399.19;5046211;28;19939;-67
2023/10/06 09:36:50;;;;;;;;;;;;;;;-144.99;100.00;52407.31;5047381;28;20394;-67
2023/10/06 09:39:26;;;;;;;;;;;;;;;-144.99;100.00;52393.06;5041111;28;20046;-67
2023/10/06 09:41:54;;;;;;;;;;;;;;;-144.99;100.00;52391.03;5047359;28;19946;-69
2023/10/06 09:44:22;;;;;;;;;;;;;;;-144.99;100.00;52415.47;5043660;28;20022;-69
2023/10/06 09:46:52;;;;;;;;;;;;;;;-144.99;100.00;52391.03;5045947;28;20020;-67
2023/10/06 09:49:19;;;;;;;;;;;;;;;-144.99;100.00;52378.78;5049579;28;20397;-68
2023/10/06 09:51:46;;;;;;;;;;;;;;;-144.99;100.00;52411.41;5049395;28;20020;-67
2023/10/06 09:54:13;;;;;;;;;;;;;;;-144.99;100.00;52370.63;5038348;28;19945;-67
2023/10/06 09:56:40;;;;;;;;;;;;;;;-144.99;100.00;52419.56;5042708;28;20317;-67
2023/10/06 09:59:12;;;;;;;;;;;;;;;-144.99;100.00;52397.13;5047098;28;19994;-67
2023/10/06 10:01:40;;;;;;;;;;;;;;;-144.99;100.00;52388.97;5045184;28;19988;-66
2023/10/06 10:04:11;;;;;;;;;;;;;;;-144.99;100.00;52366.56;5049187;28;19938;-65
2023/10/06 10:06:40;;;;;;;;;;;;;;;-144.99;100.00;52388.97;5046363;28;19949;-65
2023/10/06 10:09:08;;;;;;;;;;;;;;;-144.99;100.00;52448.09;5044155;28;19942;-67
2023/10/06 10:11:39;;;;;;;;;;;;;;;-144.99;100.00;52386.94;5046887;28;19968;-67
2023/10/06 10:14:29;;;;;;;;;;;;;;;-144.99;100.00;52427.72;5046015;28;20334;-66
2023/10/06 10:17:07;;;;;;;;;;;;;;;-144.99;100.00;52407.31;5044532;28;19945;-67
2023/10/06 10:19:36;;;;;;;;;;;;;;;-144.99;100.00;52419.56;5044612;28;19956;-67
2023/10/06 10:22:03;;;;;;;;;;;;;;;-144.99;100.00;52395.09;5047740;28;19944;-69
2023/10/06 10:24:31;;;;;;;;;;;;;;;-144.99;100.00;52423.63;5023140;28;20392;-67
2023/10/06 10:26:59;;;;;;;;;;;;;;;-144.99;100.00;52423.63;5047483;28;19941;-65
2023/10/06 10:29:30;;;;;;;;;;;;;;;-144.99;100.00;52374.72;5048444;28;19955;-67
2023/10/06 10:32:12;;;;;;;;;;;;;;;-144.99;100.00;52395.09;5047657;28;19965;-68
2023/10/06 10:34:53;;;;;;;;;;;;;;;-144.99;100.00;52403.25;5044043;28;19952;-66
2023/10/06 10:37:23;;;;;;;;;;;;;;;-144.99;100.00;52386.94;5040300;28;20032;-67
2023/10/06 10:39:50;;;;;;;;;;;;;;;-144.99;100.00;52399.19;5040443;28;19962;-67
2023/10/06 10:42:18;;;;;;;;;;;;;;;-144.99;100.00;52399.19;5042737;28;19938;-66
2023/10/06 10:44:48;;;;;;;;;;;;;;;-144.99;100.00;52419.56;5046567;28;20039;-67
2023/10/06 10:47:15;;;;;;;;;;;;;;;-144.99;100.00;52378.78;5046287;28;19943;-65
2023/10/06 10:49:44;;;;;;;;;;;;;;;-144.99;100.00;52419.56;5041606;28;20199;-67
2023/10/06 10:52:11;;;;;;;;;;;;;;;-144.99;100.00;52395.09;5046366;28;19959;-68
2023/10/06 10:54:39;;;;;;;;;;;;;;;-144.99;100.00;52419.56;5040963;28;20044;-66
2023/10/06 10:57:06;;;;;;;;;;;;;;;-144.99;100.00;52350.25;5041541;28;20015;-68
2023/10/06 10:59:51;;;;;;;;;;;;;;;-144.99;100.00;52419.56;5044053;28;20002;-67
2023/10/06 11:02:19;;;;;;;;;;;;;;;-144.99;100.00;52382.88;5045233;28;19952;-66
2023/10/06 11:04:47;;;;;;;;;;;;;;;-144.99;100.00;52388.97;5048665;28;19958;-68
2023/10/06 11:07:15;;;;;;;;;;;;;;;-144.99;100.00;52374.72;5051505;28;19983;-67
2023/10/06 11:09:47;;;;;;;;;;;;;;;-144.99;100.00;52419.56;5047730;28;19963;-67
2023/10/06 11:12:21;;;;;;;;;;;;;;;-144.99;100.00;52423.63;5044146;28;20417;-66
2023/10/06 11:14:49;;;;;;;;;;;;;;;-144.99;100.00;52419.56;5048482;28;20028;-66
2023/10/06 11:17:20;;;;;;;;;;;;;;;-144.99;100.00;52370.63;5043751;28;20369;-65
2023/10/06 11:19:58;;;;;;;;;;;;;;;-144.99;100.00;52397.13;5051683;28;20333;-67
2023/10/06 11:22:25;;;;;;;;;;;;;;;-144.99;100.00;52419.56;5052268;28;19971;-66
2023/10/06 11:24:57;;;;;;;;;;;;;;;-144.99;100.00;52386.94;5051136;28;19950;-66
2023/10/06 11:27:24;;;;;;;;;;;;;;;-144.99;100.00;52378.78;5046925;28;20473;-65
2023/10/06 11:29:51;;;;;;;;;;;;;;;-144.99;100.00;52415.47;5047174;28;19960;-65
2023/10/06 11:32:18;;;;;;;;;;;;;;;-144.99;100.00;52425.66;5047688;28;19957;-67
2023/10/06 11:34:45;;;;;;;;;;;;;;;-144.99;100.00;52419.56;5039618;28;19981;-66
2023/10/06 11:37:13;;;;;;;;;;;;;;;-144.99;100.00;52382.88;5045007;28;19946;-67
2023/10/06 11:39:40;;;;;;;;;;;;;;;-144.99;100.00;52415.47;5041403;28;20464;-67
2023/10/06 11:42:24;;;;;;;;;;;;;;;-144.99;100.00;52435.88;5044239;28;19947;-67
2023/10/06 11:44:52;;;;;;;;;;;;;;;-144.99;100.00;52395.09;5040282;28;19981;-68
2023/10/06 11:47:21;;;;;;;;;;;;;;;-144.99;100.00;52386.94;5042971;28;19937;-67
2023/10/06 11:49:54;;;;;;;;;;;;;;;-144.99;100.00;52376.75;5044111;28;20520;-67
2023/10/06 11:52:21;;;;;;;;;;;;;;;-144.99;100.00;52386.94;5042259;28;20062;-67
2023/10/06 11:54:48;;;;;;;;;;;;;;;-144.99;100.00;52382.88;5051246;28;20034;-69
2023/10/06 11:57:15;;;;;;;;;;;;;;;-144.99;100.00;52386.94;5050968;28;19939;-70
2023/10/06 11:59:48;;;;;;;;;;;;;;;-144.99;100.00;52391.03;5042934;28;20282;-69
2023/10/06 12:02:15;;;;;;;;;;;;;;;-144.99;100.00;52395.09;5048586;28;19987;-67
2023/10/06 12:04:42;;;;;;;;;;;;;;;-144.99;100.00;52417.53;5040472;28;19936;-66
2023/10/06 12:07:20;;;;;;;;;;;;;;;-144.99;100.00;52415.47;5042259;28;20369;-67
2023/10/06 12:09:48;;;;;;;;;;;;;;;-144.99;100.00;52419.56;5046574;28;20017;-69
2023/10/06 12:12:16;;;;;;;;;;;;;;;-144.99;100.00;52395.09;5046475;28;19963;-66
2023/10/06 12:14:43;;;;;;;;;;;;;;;-144.99;100.00;52342.09;5045478;28;19963;-66
2023/10/06 12:17:11;;;;;;;;;;;;;;;-144.99;100.00;52391.03;5044084;28;19939;-67
2023/10/06 12:19:38;;;;;;;;;;;;;;;-144.99;100.00;52354.34;5048847;28;19955;-67
2023/10/06 12:22:04;;;;;;;;;;;;;;;-144.99;100.00;52386.94;5051002;28;19975;-69
2023/10/06 12:24:31;;;;;;;;;;;;;;;-144.99;100.00;52395.09;5043548;28;19946;-67
2023/10/06 12:26:59;;;;;;;;;;;;;;;-144.99;100.00;52380.84;5049524;28;20045;-66
2023/10/06 12:29:28;;;;;;;;;;;;;;;-144.99;100.00;52354.34;5050358;28;20008;-66